Time;durP1;ratioP1;P1;durP2;ratioP2;P2;SDS_P1;SDS_P2;PMS_P1;PMS_P2;Temp;Humidity;BMP_temperature;BMP_pressure;BME280_temperature;BME280_humidity;BME280_pressure;Samples;Min_cycle;Max_cycle;Signal;HPM_P1;HPM_P2
2023/02/24 00:01:27;;;;;;;10.57;2.28;;;3.00;99.90;;;;;;5081684;28;20039;-66
2023/02/24 00:03:59;;;;;;;11.43;1.98;;;3.00;99.90;;;;;;5080629;28;20089;-66
2023/02/24 00:06:35;;;;;;;14.55;2.30;;;3.00;99.90;;;;;;5081802;28;20118;-66
2023/02/24 00:09:22;;;;;;;11.50;2.22;;;3.10;99.90;;;;;;5074019;28;20464;-66
2023/02/24 00:11:58;;;;;;;11.30;2.15;;;3.00;99.90;;;;;;5080236;28;20040;-66
2023/02/24 00:14:29;;;;;;;9.48;2.35;;;3.10;99.90;;;;;;5086325;28;20050;-66
2023/02/24 00:16:55;;;;;;;9.82;2.33;;;3.10;99.90;;;;;;5084910;28;20036;-66
2023/02/24 00:19:23;;;;;;;10.07;2.40;;;3.10;99.90;;;;;;5084635;28;20077;-66
2023/02/24 00:21:50;;;;;;;10.38;2.40;;;3.10;99.90;;;;;;5084343;28;20048;-66
2023/02/24 00:24:17;;;;;;;10.52;2.30;;;3.00;99.90;;;;;;5064670;28;20047;-66
2023/02/24 00:26:44;;;;;;;11.68;2.63;;;3.10;99.90;;;;;;5085951;28;20044;-64
2023/02/24 00:29:12;;;;;;;18.73;3.20;;;3.00;99.90;;;;;;5084919;28;20032;-64
2023/02/24 00:31:40;;;;;;;10.95;2.53;;;3.00;99.90;;;;;;5083877;28;20650;-65
2023/02/24 00:34:07;;;;;;;10.70;2.70;;;3.00;99.90;;;;;;5085240;28;20032;-65
2023/02/24 00:36:33;;;;;;;12.50;2.33;;;3.00;99.90;;;;;;5079869;28;20189;-65
2023/02/24 00:39:08;;;;;;;5.30;2.67;;;3.00;99.90;;;;;;5085624;28;20128;-65
2023/02/24 00:41:35;;;;;;;10.85;2.20;;;3.00;99.90;;;;;;5076477;28;20514;-65
2023/02/24 00:44:08;;;;;;;8.45;2.40;;;2.90;99.90;;;;;;5067352;28;20098;-65
2023/02/24 00:46:45;;;;;;;14.50;2.63;;;2.80;99.90;;;;;;5078338;28;20115;-65
2023/02/24 00:49:15;;;;;;;8.80;2.95;;;2.70;99.90;;;;;;5072402;28;20404;-65
2023/02/24 00:51:43;;;;;;;8.15;2.50;;;2.70;99.90;;;;;;5071156;28;20040;-65
2023/02/24 00:54:13;;;;;;;7.22;2.20;;;2.60;99.90;;;;;;5081275;28;20119;-65
2023/02/24 00:56:41;;;;;;;12.05;2.42;;;2.50;99.90;;;;;;5078563;28;20052;-65
2023/02/24 00:59:08;;;;;;;10.77;2.47;;;2.40;99.90;;;;;;5078966;28;20114;-65
2023/02/24 01:01:34;;;;;;;7.72;2.50;;;2.40;99.90;;;;;;5081558;28;20044;-65
2023/02/24 01:04:04;;;;;;;8.73;2.50;;;2.30;99.90;;;;;;5080275;28;20546;-65
2023/02/24 01:06:31;;;;;;;12.43;2.58;;;2.20;99.90;;;;;;5076146;28;20085;-65
2023/02/24 01:08:58;;;;;;;10.85;2.35;;;2.20;99.90;;;;;;5086176;28;20033;-65
2023/02/24 01:14:19;;;;;;;7.80;1.83;;;2.10;99.90;;;;;;5083126;28;20482;-65
2023/02/24 01:16:49;;;;;;;7.15;2.22;;;2.10;99.90;;;;;;5081033;28;21193;-65
2023/02/24 01:19:19;;;;;;;10.20;1.83;;;2.00;99.90;;;;;;5087144;28;20424;-65
2023/02/24 01:21:46;;;;;;;9.00;1.85;;;2.00;99.90;;;;;;5086168;28;20028;-65
2023/02/24 01:24:15;;;;;;;9.02;2.35;;;2.00;99.90;;;;;;5085334;28;20503;-65
2023/02/24 01:26:41;;;;;;;9.68;1.80;;;2.00;99.90;;;;;;5081660;28;20035;-65
2023/02/24 01:29:10;;;;;;;6.32;1.00;;;2.10;99.90;;;;;;5088321;28;20040;-65
2023/02/24 01:31:42;;;;;;;8.77;1.42;;;2.10;99.90;;;;;;5087485;28;20050;-65
2023/02/24 01:34:09;;;;;;;4.47;1.02;;;2.20;99.90;;;;;;5089892;28;20444;-65
2023/02/24 01:36:37;;;;;;;6.97;1.20;;;2.30;99.90;;;;;;5086211;28;20071;-65
2023/02/24 01:39:05;;;;;;;5.90;0.90;;;2.30;99.90;;;;;;5086257;28;20055;-65
2023/02/24 01:41:31;;;;;;;6.72;1.20;;;2.30;99.90;;;;;;5086280;28;20070;-65
2023/02/24 01:44:01;;;;;;;8.20;1.42;;;2.40;99.90;;;;;;5082240;28;20118;-65
2023/02/24 01:46:29;;;;;;;9.43;1.15;;;2.50;99.90;;;;;;5080728;28;20044;-65
2023/02/24 01:49:01;;;;;;;7.43;1.73;;;2.60;99.90;;;;;;5080477;28;20064;-65
2023/02/24 01:51:32;;;;;;;6.60;1.08;;;2.60;99.90;;;;;;5084958;28;20039;-65
2023/02/24 01:54:00;;;;;;;7.18;1.60;;;2.60;99.90;;;;;;5089847;28;20054;-65
2023/02/24 01:56:28;;;;;;;5.97;1.50;;;2.70;99.90;;;;;;5081568;28;20165;-65
2023/02/24 01:58:55;;;;;;;7.55;1.00;;;2.70;99.90;;;;;;5086340;28;20620;-65
2023/02/24 02:01:21;;;;;;;9.30;1.27;;;2.70;99.90;;;;;;5074495;28;20036;-64
2023/02/24 02:03:48;;;;;;;4.80;0.90;;;2.80;99.90;;;;;;5084753;28;20042;-63
2023/02/24 02:06:16;;;;;;;9.45;1.00;;;2.80;99.90;;;;;;5065039;28;20052;-64
2023/02/24 02:08:43;;;;;;;7.43;1.10;;;2.80;99.90;;;;;;5085915;28;20499;-64
2023/02/24 02:11:13;;;;;;;7.82;1.30;;;2.80;99.90;;;;;;5072275;28;20029;-64
2023/02/24 02:13:43;;;;;;;6.80;0.98;;;2.80;99.90;;;;;;5087035;28;20043;-64
2023/02/24 02:16:21;;;;;;;10.15;1.35;;;2.80;99.90;;;;;;5072552;28;20044;-64
2023/02/24 02:19:12;;;;;;;6.53;0.88;;;2.90;99.90;;;;;;5085876;28;20094;-64
2023/02/24 02:21:58;;;;;;;8.80;1.00;;;2.90;99.90;;;;;;5086183;28;20124;-64
2023/02/24 02:24:32;;;;;;;5.97;0.75;;;2.90;99.90;;;;;;5082992;28;20041;-65
2023/02/24 02:27:18;;;;;;;4.93;1.20;;;3.00;99.90;;;;;;5083162;28;20032;-64
2023/02/24 02:30:22;;;;;;;7.78;1.13;;;3.00;99.90;;;;;;5086453;28;20399;-64
2023/02/24 02:33:00;;;;;;;6.85;1.10;;;3.00;99.90;;;;;;5085331;28;20392;-65
2023/02/24 02:35:39;;;;;;;8.27;1.27;;;2.90;99.90;;;;;;5082892;28;20064;-64
2023/02/24 02:38:17;;;;;;;8.23;1.10;;;2.90;99.90;;;;;;5082686;28;20147;-63
2023/02/24 02:40:58;;;;;;;15.43;2.03;;;2.80;99.90;;;;;;5084617;28;20101;-64
2023/02/24 02:43:41;;;;;;;6.78;0.98;;;2.80;99.90;;;;;;5075897;28;20032;-64
2023/02/24 02:46:33;;;;;;;5.82;1.05;;;2.80;99.90;;;;;;5086224;28;20389;-64
2023/02/24 02:49:08;;;;;;;5.28;1.10;;;2.70;99.90;;;;;;5081391;28;20051;-64
2023/02/24 02:51:50;;;;;;;4.50;1.60;;;2.70;99.90;;;;;;5081723;28;20036;-63
2023/02/24 02:54:23;;;;;;;7.10;1.17;;;2.80;99.90;;;;;;5063575;28;20047;-64
2023/02/24 02:56:58;;;;;;;7.38;1.30;;;2.80;99.90;;;;;;5065405;28;20079;-64
2023/02/24 02:59:28;;;;;;;8.40;1.05;;;2.80;99.90;;;;;;5081713;28;20549;-64
2023/02/24 03:02:10;;;;;;;7.35;1.30;;;2.90;99.90;;;;;;5082353;28;20475;-64
2023/02/24 03:04:41;;;;;;;5.60;0.98;;;2.90;99.90;;;;;;5081921;28;20139;-64
2023/02/24 03:07:09;;;;;;;8.52;1.27;;;2.90;99.90;;;;;;5066798;28;20036;-63
2023/02/24 03:09:41;;;;;;;8.02;1.33;;;3.00;99.90;;;;;;5057989;28;20040;-64
2023/02/24 03:12:13;;;;;;;8.50;1.20;;;3.00;99.90;;;;;;5065170;28;20040;-64
2023/02/24 03:14:43;;;;;;;5.78;0.90;;;3.00;99.90;;;;;;5084580;28;20115;-65
2023/02/24 03:17:16;;;;;;;10.57;1.17;;;3.00;99.90;;;;;;5066990;28;20060;-65
2023/02/24 03:19:45;;;;;;;9.00;1.10;;;3.00;99.90;;;;;;5079972;28;20059;-65
2023/02/24 03:22:37;;;;;;;13.00;1.20;;;3.00;99.90;;;;;;5065348;28;20380;-65
2023/02/24 03:25:05;;;;;;;9.23;1.00;;;3.10;99.90;;;;;;5081496;28;20048;-65
2023/02/24 03:27:43;;;;;;;9.85;1.60;;;3.10;99.90;;;;;;5084576;28;20048;-64
2023/02/24 03:30:34;;;;;;;6.47;0.60;;;3.10;99.90;;;;;;5084763;28;20051;-65
2023/02/24 03:33:08;;;;;;;5.35;1.25;;;3.10;99.90;;;;;;5067199;28;20101;-65
2023/02/24 03:35:39;;;;;;;7.10;1.15;;;3.10;99.90;;;;;;5081807;28;20043;-65
2023/02/24 03:38:05;;;;;;;6.50;0.77;;;3.10;99.90;;;;;;5081578;28;20052;-64
2023/02/24 03:40:34;;;;;;;7.60;1.10;;;3.10;99.90;;;;;;5078337;28;20129;-65
2023/02/24 03:43:24;;;;;;;8.15;1.10;;;3.10;99.90;;;;;;5080732;28;20036;-65
2023/02/24 03:45:50;;;;;;;8.05;1.10;;;3.20;99.90;;;;;;5087442;28;20046;-64
2023/02/24 03:48:16;;;;;;;6.80;0.95;;;3.10;99.90;;;;;;5080266;28;20119;-64
2023/02/24 03:50:42;;;;;;;7.22;0.90;;;3.10;99.90;;;;;;5081335;28;20082;-64
2023/02/24 03:53:35;;;;;;;9.10;1.10;;;3.10;99.90;;;;;;5085170;28;20093;-64
2023/02/24 03:56:21;;;;;;;6.75;0.90;;;3.10;99.90;;;;;;5068440;28;20032;-64
2023/02/24 03:59:11;;;;;;;7.68;0.93;;;3.00;99.90;;;;;;5078823;28;20488;-65
2023/02/24 04:01:56;;;;;;;6.68;1.00;;;3.10;99.90;;;;;;5062812;28;20052;-64
2023/02/24 04:04:34;;;;;;;9.13;0.90;;;3.10;99.90;;;;;;5071579;28;20039;-65
2023/02/24 04:07:08;;;;;;;10.07;1.10;;;3.10;99.90;;;;;;5064084;28;20052;-65
2023/02/24 04:10:11;;;;;;;7.18;0.77;;;3.10;99.90;;;;;;5083898;28;20044;-64
2023/02/24 04:13:03;;;;;;;10.30;0.95;;;3.10;99.90;;;;;;5056688;28;20079;-64
2023/02/24 04:15:42;;;;;;;4.93;0.60;;;3.10;99.90;;;;;;5081973;28;20040;-64
2023/02/24 04:18:15;;;;;;;6.88;0.82;;;3.20;99.90;;;;;;5072765;28;20476;-65
2023/02/24 04:20:43;;;;;;;12.68;0.77;;;3.20;99.90;;;;;;5082648;28;20495;-64
2023/02/24 04:23:17;;;;;;;7.90;1.00;;;3.20;99.90;;;;;;5084268;28;20046;-65
2023/02/24 04:25:46;;;;;;;6.53;0.77;;;3.20;99.90;;;;;;5069664;28;20127;-66
2023/02/24 04:28:14;;;;;;;9.07;1.05;;;3.20;99.90;;;;;;5079743;28;20031;-66
2023/02/24 04:30:44;;;;;;;3.92;0.70;;;3.30;99.90;;;;;;5064148;28;20047;-66
2023/02/24 04:33:10;;;;;;;6.35;0.80;;;3.30;99.90;;;;;;5083244;28;20032;-65
2023/02/24 04:35:36;;;;;;;7.60;0.98;;;3.30;99.90;;;;;;5069280;28;20463;-65
2023/02/24 04:38:04;;;;;;;7.50;0.73;;;3.30;99.90;;;;;;5068066;28;20087;-65
2023/02/24 04:40:30;;;;;;;9.23;1.10;;;3.40;99.90;;;;;;5065170;28;20054;-65
2023/02/24 04:42:55;;;;;;;4.90;0.80;;;3.40;99.90;;;;;;5082622;28;20487;-66
2023/02/24 04:45:27;;;;;;;7.60;1.15;;;3.40;99.90;;;;;;5071204;28;20044;-66
2023/02/24 04:47:59;;;;;;;6.13;0.90;;;3.50;99.90;;;;;;5082047;28;20145;-65
2023/02/24 04:50:31;;;;;;;6.80;1.58;;;3.50;99.90;;;;;;5085337;28;20139;-66
2023/02/24 04:52:59;;;;;;;3.42;0.50;;;3.50;99.90;;;;;;5084988;28;20032;-65
2023/02/24 04:55:32;;;;;;;6.03;0.80;;;3.50;99.90;;;;;;5079688;28;20117;-65
2023/02/24 04:58:01;;;;;;;9.57;1.00;;;3.50;99.90;;;;;;5087502;28;20372;-65
2023/02/24 05:00:32;;;;;;;8.23;0.88;;;3.60;99.90;;;;;;5083856;28;20036;-65
2023/02/24 05:03:02;;;;;;;4.90;0.75;;;3.60;99.90;;;;;;5066893;28;20070;-65
2023/02/24 05:05:28;;;;;;;8.43;0.98;;;3.70;99.90;;;;;;5079768;28;20052;-65
2023/02/24 05:08:01;;;;;;;7.40;0.77;;;3.70;99.90;;;;;;5080959;28;20123;-65
2023/02/24 05:10:46;;;;;;;4.80;0.82;;;3.80;99.90;;;;;;5085940;28;20032;-65
2023/02/24 05:13:18;;;;;;;4.22;0.57;;;3.80;99.90;;;;;;5086381;28;20046;-65
2023/02/24 05:15:46;;;;;;;8.07;0.70;;;3.80;99.90;;;;;;5086845;28;20036;-65
2023/02/24 05:18:15;;;;;;;8.23;1.15;;;3.80;99.90;;;;;;5091118;28;20119;-66
2023/02/24 05:23:43;;;;;;;8.45;1.00;;;3.90;99.90;;;;;;5085989;28;20060;-65
2023/02/24 05:26:11;;;;;;;6.90;0.80;;;3.90;99.90;;;;;;5081829;28;20040;-66
2023/02/24 05:28:39;;;;;;;8.32;1.10;;;4.00;99.90;;;;;;5073032;28;20047;-66
2023/02/24 05:31:13;;;;;;;4.20;0.60;;;4.00;99.90;;;;;;5087549;28;20046;-65
2023/02/24 05:33:44;;;;;;;6.40;1.30;;;4.10;99.90;;;;;;5085718;28;20047;-66
2023/02/24 05:36:16;;;;;;;5.65;0.82;;;4.10;99.90;;;;;;5072591;28;20048;-66
2023/02/24 05:38:54;;;;;;;5.03;0.70;;;4.10;99.90;;;;;;5087173;28;20036;-66
2023/02/24 05:41:21;;;;;;;9.75;1.52;;;4.10;99.90;;;;;;5075392;28;20369;-65
2023/02/24 05:43:54;;;;;;;6.93;0.60;;;4.20;99.90;;;;;;5083980;28;20125;-66
2023/02/24 05:46:26;;;;;;;6.13;0.90;;;4.10;99.90;;;;;;5084770;28;20075;-65
2023/02/24 05:49:07;;;;;;;5.80;0.90;;;4.20;99.90;;;;;;5087105;28;20065;-65
2023/02/24 05:51:35;;;;;;;4.80;0.70;;;4.20;99.90;;;;;;5080471;28;20068;-65
2023/02/24 05:54:10;;;;;;;5.40;0.77;;;4.20;99.90;;;;;;5071101;28;20079;-65
2023/02/24 05:56:38;;;;;;;5.85;1.05;;;4.20;99.90;;;;;;5070539;28;20040;-65
2023/02/24 05:59:07;;;;;;;7.07;0.65;;;4.20;99.90;;;;;;5083928;28;20049;-65
2023/02/24 06:01:40;;;;;;;8.38;1.30;;;4.20;99.90;;;;;;5084598;28;20079;-65
2023/02/24 06:04:07;;;;;;;6.75;1.23;;;4.20;99.90;;;;;;5084972;28;20036;-65
2023/02/24 06:06:38;;;;;;;9.20;1.38;;;4.20;99.90;;;;;;5088996;28;20059;-66
2023/02/24 06:09:08;;;;;;;10.93;1.65;;;4.20;99.90;;;;;;5088158;28;20108;-66
2023/02/24 06:11:34;;;;;;;9.52;0.88;;;4.30;99.90;;;;;;5080152;28;20383;-65
2023/02/24 06:14:01;;;;;;;7.45;1.10;;;4.30;99.90;;;;;;5082011;28;20028;-65
2023/02/24 06:16:26;;;;;;;8.32;0.98;;;4.30;99.90;;;;;;5089300;28;20068;-65
2023/02/24 06:18:55;;;;;;;7.80;1.10;;;4.30;99.90;;;;;;5087450;28;20117;-66
2023/02/24 06:21:21;;;;;;;6.57;1.05;;;4.30;99.90;;;;;;5083180;28;20108;-66
2023/02/24 06:23:46;;;;;;;9.68;1.95;;;4.30;99.90;;;;;;5088151;28;20036;-65
2023/02/24 06:26:15;;;;;;;8.52;1.65;;;4.30;99.90;;;;;;5087896;28;20042;-65
2023/02/24 06:28:44;;;;;;;8.07;1.95;;;4.20;99.90;;;;;;5087600;28;20036;-65
2023/02/24 06:31:10;;;;;;;7.88;1.35;;;4.20;99.90;;;;;;5070008;28;20477;-65
2023/02/24 06:33:37;;;;;;;5.18;1.33;;;4.10;99.90;;;;;;5086117;28;20035;-66
2023/02/24 06:36:04;;;;;;;7.63;1.27;;;4.10;99.90;;;;;;5084692;28;20745;-66
2023/02/24 06:38:30;;;;;;;9.07;1.30;;;4.10;99.90;;;;;;5086744;28;20106;-66
2023/02/24 06:40:57;;;;;;;8.48;1.42;;;4.10;99.90;;;;;;5083129;28;20048;-66
2023/02/24 06:43:23;;;;;;;9.00;2.30;;;4.00;99.90;;;;;;5080212;28;20090;-67
2023/02/24 06:45:49;;;;;;;11.48;1.55;;;4.00;99.90;;;;;;5069719;28;20075;-66
2023/02/24 06:48:15;;;;;;;10.25;1.27;;;4.00;99.90;;;;;;5082707;28;20071;-66
2023/02/24 06:50:41;;;;;;;10.75;1.45;;;4.00;99.90;;;;;;5083495;28;20031;-67
2023/02/24 06:53:15;;;;;;;5.47;1.00;;;3.90;99.90;;;;;;5070864;28;20043;-66
2023/02/24 06:55:45;;;;;;;4.45;1.10;;;4.00;99.90;;;;;;5085957;28;20028;-66
2023/02/24 06:58:18;;;;;;;10.57;1.67;;;3.90;99.90;;;;;;5074744;28;20062;-67
2023/02/24 07:01:06;;;;;;;8.48;1.60;;;3.90;99.90;;;;;;5086605;28;20040;-66
2023/02/24 07:04:02;;;;;;;14.35;2.42;;;3.90;99.90;;;;;;5088321;28;20491;-66
2023/02/24 07:06:33;;;;;;;7.32;1.48;;;3.90;99.90;;;;;;5082359;28;20392;-66
2023/02/24 07:09:00;;;;;;;14.13;2.00;;;3.90;99.90;;;;;;5082506;28;20038;-66
2023/02/24 07:11:27;;;;;;;10.43;2.00;;;3.80;99.90;;;;;;5082649;28;20515;-67
2023/02/24 07:13:53;;;;;;;10.55;2.00;;;3.80;99.90;;;;;;5083420;28;20037;-67
2023/02/24 07:16:27;;;;;;;7.22;2.00;;;3.80;99.90;;;;;;5081023;28;20044;-67
2023/02/24 07:19:09;;;;;;;13.07;1.92;;;3.80;99.90;;;;;;5078870;28;20930;-67
2023/02/24 07:21:39;;;;;;;10.60;2.38;;;3.80;99.90;;;;;;5065689;28;20147;-68
2023/02/24 07:24:12;;;;;;;15.13;2.97;;;3.90;99.90;;;;;;5085480;28;20040;-67
2023/02/24 07:26:40;;;;;;;10.60;2.35;;;3.90;99.90;;;;;;5080556;28;20044;-68
2023/02/24 07:29:07;;;;;;;15.73;2.80;;;3.90;99.90;;;;;;5066661;28;20064;-67
2023/02/24 07:31:34;;;;;;;13.90;2.83;;;3.90;99.90;;;;;;5064297;28;20048;-68
2023/02/24 07:34:00;;;;;;;17.58;3.58;;;3.90;99.90;;;;;;5069696;28;20118;-68
2023/02/24 07:36:37;;;;;;;12.60;3.65;;;4.00;99.90;;;;;;5054993;28;20044;-67
2023/02/24 07:39:06;;;;;;;13.63;3.70;;;4.00;99.90;;;;;;5056874;28;20052;-68
2023/02/24 07:41:33;;;;;;;18.00;3.50;;;4.10;99.90;;;;;;5064515;28;20040;-67
2023/02/24 07:44:02;;;;;;;12.63;3.55;;;4.10;99.90;;;;;;5066348;28;20183;-67
2023/02/24 07:46:28;;;;;;;16.20;3.67;;;4.10;99.90;;;;;;5083623;28;20068;-67
2023/02/24 07:48:57;;;;;;;12.88;3.20;;;4.10;99.90;;;;;;5071085;28;20673;-67
2023/02/24 07:51:26;;;;;;;17.60;3.47;;;4.10;99.90;;;;;;5070718;28;20054;-66
2023/02/24 07:54:00;;;;;;;15.10;3.53;;;4.20;99.90;;;;;;5072221;28;20376;-68
2023/02/24 07:56:27;;;;;;;16.80;3.58;;;4.20;99.90;;;;;;5074855;28;20047;-68
2023/02/24 07:58:58;;;;;;;15.75;3.55;;;4.20;99.90;;;;;;5072455;28;20044;-67
2023/02/24 08:01:37;;;;;;;15.93;3.92;;;4.20;99.90;;;;;;5086124;28;20508;-66
2023/02/24 08:04:06;;;;;;;16.23;3.40;;;4.30;99.90;;;;;;5074526;28;20047;-67
2023/02/24 08:06:42;;;;;;;15.50;3.25;;;4.30;99.90;;;;;;5072894;28;20524;-66
2023/02/24 08:09:17;;;;;;;16.25;3.50;;;4.30;99.90;;;;;;5073077;28;20036;-66
2023/02/24 08:11:51;;;;;;;16.98;3.63;;;4.30;99.90;;;;;;5077003;28;20050;-67
2023/02/24 08:14:24;;;;;;;19.38;3.20;;;4.30;99.90;;;;;;5068138;28;20040;-66
2023/02/24 08:16:58;;;;;;;16.40;3.05;;;4.30;99.90;;;;;;5064730;28;20036;-67
2023/02/24 08:19:41;;;;;;;17.10;3.50;;;4.40;99.90;;;;;;5086029;28;20511;-66
2023/02/24 08:22:23;;;;;;;13.73;2.90;;;4.40;99.90;;;;;;5074911;28;20075;-66
2023/02/24 08:24:54;;;;;;;17.58;3.38;;;4.50;99.90;;;;;;5070777;28;20040;-67
2023/02/24 08:27:23;;;;;;;18.98;3.92;;;4.50;99.90;;;;;;5077309;28;20092;-67
2023/02/24 08:30:00;;;;;;;16.42;2.75;;;4.50;99.90;;;;;;5073760;28;20044;-67
2023/02/24 08:32:43;;;;;;;14.70;3.28;;;4.50;99.90;;;;;;5073533;28;20032;-67
2023/02/24 08:35:15;;;;;;;17.15;3.33;;;4.50;99.90;;;;;;5053941;28;20039;-67
2023/02/24 08:37:49;;;;;;;19.33;3.13;;;4.50;99.90;;;;;;5066786;28;20060;-67
2023/02/24 08:43:14;;;;;;;16.38;3.60;;;4.60;99.90;;;;;;5071098;28;20047;-67
2023/02/24 08:45:43;;;;;;;17.35;3.15;;;4.60;99.90;;;;;;5066003;28;20108;-68
2023/02/24 08:48:25;;;;;;;15.95;2.70;;;4.60;99.90;;;;;;5070877;28;20044;-69
2023/02/24 08:50:56;;;;;;;15.30;3.42;;;4.60;99.90;;;;;;5068778;28;20074;-68
2023/02/24 08:53:28;;;;;;;17.70;3.72;;;4.60;99.90;;;;;;5062131;28;20048;-68
2023/02/24 08:55:54;;;;;;;16.58;3.60;;;4.70;99.90;;;;;;5062892;28;20077;-69
2023/02/24 08:58:25;;;;;;;15.73;3.70;;;4.70;99.90;;;;;;5065278;28;20503;-68
2023/02/24 09:00:58;;;;;;;17.15;3.50;;;4.70;99.90;;;;;;5074868;28;20036;-69
2023/02/24 09:03:26;;;;;;;22.70;4.32;;;4.70;99.90;;;;;;5074776;28;20080;-69
2023/02/24 09:06:03;;;;;;;18.27;3.75;;;4.70;99.90;;;;;;5092588;28;20071;-69
2023/02/24 09:08:37;;;;;;;23.50;4.32;;;4.90;99.90;;;;;;5073854;28;20059;-69
2023/02/24 09:11:08;;;;;;;22.80;4.72;;;4.90;99.90;;;;;;5071401;28;20420;-69
2023/02/24 09:13:35;;;;;;;13.68;3.83;;;4.80;99.90;;;;;;5071581;28;20067;-69
2023/02/24 09:16:03;;;;;;;14.07;3.63;;;4.90;99.90;;;;;;5073743;28;20376;-69
2023/02/24 09:18:29;;;;;;;12.88;3.85;;;4.90;99.90;;;;;;5071629;28;20426;-69
2023/02/24 09:20:56;;;;;;;15.77;4.03;;;4.90;99.90;;;;;;5055992;28;20400;-69
2023/02/24 09:23:28;;;;;;;13.82;3.97;;;5.00;99.90;;;;;;5076772;28;20049;-68
2023/02/24 09:25:55;;;;;;;12.15;3.53;;;5.00;99.90;;;;;;5075537;28;20044;-68
2023/02/24 09:28:26;;;;;;;13.70;3.58;;;5.00;99.90;;;;;;5074528;28;20044;-68
2023/02/24 09:30:58;;;;;;;11.88;3.65;;;5.00;99.90;;;;;;5071280;28;20071;-68
2023/02/24 09:33:26;;;;;;;11.30;3.45;;;5.10;99.90;;;;;;5071108;28;20483;-69
2023/02/24 09:36:11;;;;;;;18.55;4.05;;;5.10;99.90;;;;;;5074923;28;20040;-69
2023/02/24 09:39:08;;;;;;;;;;;5.10;99.90;;;;;;5077918;28;20057;-69
2023/02/24 09:41:52;;;;;;;11.10;3.80;;;5.20;99.90;;;;;;5068001;28;19924;-69
2023/02/24 09:44:32;;;;;;;16.52;4.28;;;5.20;99.90;;;;;;5067292;28;20048;-68
2023/02/24 09:47:38;;;;;;;13.00;3.47;;;5.20;99.90;;;;;;5066308;28;20040;-69
2023/02/24 09:50:23;;;;;;;10.77;3.67;;;5.20;99.90;;;;;;5067819;28;20115;-68
2023/02/24 09:52:55;;;;;;;8.27;3.40;;;5.20;99.90;;;;;;5071783;28;20384;-67
2023/02/24 09:55:44;;;;;;;15.23;4.35;;;5.20;99.90;;;;;;5068641;28;20504;-67
2023/02/24 09:58:22;;;;;;;14.18;3.85;;;5.20;99.90;;;;;;5069937;28;20074;-67
2023/02/24 10:01:29;;;;;;;11.45;3.70;;;5.30;99.90;;;;;;5067913;28;20602;-67
2023/02/24 10:04:10;;;;;;;8.25;3.55;;;5.40;99.90;;;;;;5069045;28;20064;-68
2023/02/24 10:06:43;;;;;;;11.63;4.13;;;5.50;99.90;;;;;;5070317;28;20040;-68
2023/02/24 10:09:34;;;;;;;9.93;4.05;;;5.50;99.90;;;;;;5065456;28;20525;-68
2023/02/24 10:12:15;;;;;;;13.32;4.20;;;5.50;99.90;;;;;;5069703;28;20045;-68
2023/02/24 10:15:19;;;;;;;13.68;3.65;;;5.60;99.90;;;;;;5069944;28;20041;-68
2023/02/24 10:17:55;;;;;;;11.68;3.63;;;5.60;99.90;;;;;;5069010;28;20071;-69
2023/02/24 10:20:44;;;;;;;13.90;3.88;;;5.60;99.90;;;;;;5070240;28;20044;-69
2023/02/24 10:23:34;;;;;;;10.73;3.72;;;5.60;99.90;;;;;;5065985;28;20040;-69
2023/02/24 10:26:30;;;;;;;10.38;3.90;;;5.60;99.90;;;;;;5068765;28;20040;-69
2023/02/24 10:29:29;;;;;;;14.50;3.95;;;5.60;99.90;;;;;;5067532;28;20372;-68
2023/02/24 10:32:15;;;;;;;14.60;3.85;;;5.70;99.90;;;;;;5065482;28;20033;-69
2023/02/24 10:34:43;;;;;;;13.40;4.07;;;5.70;99.90;;;;;;5068125;28;20048;-68
2023/02/24 10:37:18;;;;;;;13.82;3.88;;;5.80;99.90;;;;;;5052284;28;20331;-68
2023/02/24 10:39:48;;;;;;;;;;;5.80;99.90;;;;;;5068208;28;20614;-69
2023/02/24 10:42:23;;;;;;;11.30;3.10;;;5.90;99.90;;;;;;5086637;28;19959;-68
2023/02/24 10:44:51;;;;;;;10.43;3.30;;;6.00;99.90;;;;;;5076211;28;20397;-68
2023/02/24 10:47:29;;;;;;;17.98;4.00;;;6.10;99.90;;;;;;5069799;28;20036;-69
2023/02/24 10:49:57;;;;;;;11.75;3.58;;;6.20;99.90;;;;;;5068856;28;20047;-68
2023/02/24 10:53:10;;;;;;;17.52;4.50;;;6.70;99.90;;;;;;5067902;28;20044;-68
2023/02/24 10:58:43;;;;;;;16.75;5.03;;;8.00;99.90;;;;;;5068711;28;20677;-68
2023/02/24 11:01:19;;;;;;;17.33;4.82;;;8.60;99.90;;;;;;5067983;28;20174;-67
2023/02/24 11:04:00;;;;;;;21.73;5.38;;;9.20;99.90;;;;;;5068330;28;20040;-68
2023/02/24 11:18:05;;;;;;;28.08;4.05;;;8.90;99.90;;;;;;4989733;28;20058;-68
2023/02/24 11:20:39;;;;;;;34.20;4.95;;;9.00;99.90;;;;;;5063415;28;20055;-68
2023/02/24 11:23:11;;;;;;;32.85;4.55;;;8.90;99.90;;;;;;5065701;28;20854;-67
2023/02/24 11:25:40;;;;;;;29.75;4.65;;;8.70;99.90;;;;;;5067224;28;20041;-68
2023/02/24 11:28:22;;;;;;;26.80;4.28;;;8.70;99.90;;;;;;5065630;28;20044;-68
2023/02/24 11:31:13;;;;;;;21.80;4.28;;;8.60;99.90;;;;;;5065676;28;20044;-67
2023/02/24 11:33:45;;;;;;;29.13;4.40;;;8.50;99.90;;;;;;5067516;28;20040;-67
2023/02/24 11:36:53;;;;;;;28.30;5.20;;;8.40;99.90;;;;;;5077210;28;20040;-67
2023/02/24 11:39:30;;;;;;;23.30;4.18;;;8.10;99.90;;;;;;5004800;28;20060;-68
2023/02/24 11:42:00;;;;;;;32.80;4.97;;;8.10;99.90;;;;;;5067527;28;20509;-67
2023/02/24 11:44:35;;;;;;;23.90;4.95;;;8.80;99.90;;;;;;5065246;28;20047;-67
2023/02/24 11:47:09;;;;;;;30.63;4.68;;;9.20;99.90;;;;;;5066493;28;20093;-67
2023/02/24 11:50:00;;;;;;;30.42;4.15;;;9.20;99.90;;;;;;5066664;28;20520;-66
2023/02/24 11:52:32;;;;;;;31.40;4.88;;;8.90;99.90;;;;;;5067363;28;20481;-66
2023/02/24 11:55:02;;;;;;;27.23;4.25;;;8.70;99.90;;;;;;5062780;28;20043;-66
2023/02/24 11:57:37;;;;;;;25.30;3.90;;;8.50;99.90;;;;;;5067627;28;20040;-66
2023/02/24 12:00:17;;;;;;;29.30;5.55;;;8.40;99.90;;;;;;5066760;28;20517;-69
2023/02/24 12:02:49;;;;;;;26.35;4.80;;;8.60;99.90;;;;;;5063015;28;20109;-69
2023/02/24 12:05:22;;;;;;;28.13;5.05;;;8.70;99.90;;;;;;5055607;28;20076;-69
2023/02/24 12:07:57;;;;;;;27.63;5.63;;;9.80;99.90;;;;;;5066802;28;20504;-69
2023/02/24 12:10:30;;;;;;;27.60;4.43;;;10.80;99.90;;;;;;5059947;28;20058;-69
2023/02/24 12:13:34;;;;;;;27.27;4.88;;;10.60;99.90;;;;;;5072579;28;20141;-69
2023/02/24 12:16:09;;;;;;;26.25;4.50;;;10.50;99.90;;;;;;5044968;28;20044;-69
2023/02/24 12:18:38;;;;;;;26.17;4.45;;;10.40;99.90;;;;;;5066401;28;20059;-69
2023/02/24 12:21:29;;;;;;;29.35;5.15;;;10.80;99.90;;;;;;5066333;28;20041;-69
2023/02/24 12:23:57;;;;;;;25.08;4.15;;;11.00;99.90;;;;;;5067170;28;20037;-69
2023/02/24 12:26:46;;;;;;;24.65;5.13;;;10.60;99.90;;;;;;5067970;28;20064;-69
2023/02/24 12:29:34;;;;;;;21.88;4.63;;;10.10;99.90;;;;;;5067502;28;20052;-68
2023/02/24 12:32:29;;;;;;;26.70;4.70;;;9.60;99.90;;;;;;5065883;28;20093;-69
2023/02/24 12:35:18;;;;;;;23.77;4.03;;;9.40;99.90;;;;;;5065133;28;20055;-69
2023/02/24 12:37:55;;;;;;;22.23;3.97;;;9.20;99.90;;;;;;5065459;28;20048;-69
2023/02/24 12:40:27;;;;;;;27.48;3.95;;;9.10;99.90;;;;;;5064715;28;20033;-69
2023/02/24 12:43:02;;;;;;;18.38;3.33;;;9.00;99.90;;;;;;5064225;28;20054;-70
2023/02/24 12:45:38;;;;;;;13.38;2.20;;;8.70;99.90;;;;;;5067143;28;20044;-73
2023/02/24 12:48:38;;;;;;;15.30;2.80;;;8.00;99.90;;;;;;5051225;28;20056;-74
2023/02/24 12:51:08;;;;;;;13.57;2.05;;;7.50;99.90;;;;;;5062961;28;20041;-75
2023/02/24 12:54:04;;;;;;;21.02;3.20;;;7.20;99.90;;;;;;5064996;28;20435;-74
2023/02/24 12:56:54;;;;;;;13.23;2.53;;;7.10;99.90;;;;;;5058912;28;20420;-74
2023/02/24 12:59:26;;;;;;;15.40;2.20;;;7.30;99.90;;;;;;5064003;28;20036;-73
2023/02/24 13:02:10;;;;;;;16.20;2.13;;;7.40;99.90;;;;;;5047287;28;20512;-73
2023/02/24 13:04:39;;;;;;;;;;;7.60;99.90;;;;;;5061180;28;20054;-73
2023/02/24 13:07:18;;;;;;;16.98;2.40;;;7.50;99.90;;;;;;5063635;28;19969;-72
2023/02/24 13:10:05;;;;;;;17.77;1.88;;;7.50;99.90;;;;;;5064600;28;20040;-72
2023/02/24 13:12:45;;;;;;;9.95;1.73;;;7.60;99.90;;;;;;5061269;28;20044;-71
2023/02/24 13:15:26;;;;;;;21.15;3.33;;;7.60;99.90;;;;;;5069243;28;20119;-72
2023/02/24 13:17:53;;;;;;;15.90;2.60;;;7.50;99.90;;;;;;5069941;28;20068;-71
2023/02/24 13:20:35;;;;;;;12.98;2.83;;;7.60;99.90;;;;;;5070185;28;20115;-72
2023/02/24 13:23:15;;;;;;;19.58;2.80;;;7.60;99.90;;;;;;5063542;28;20105;-71
2023/02/24 13:25:49;;;;;;;17.65;2.80;;;7.70;99.90;;;;;;5067355;28;20060;-70
2023/02/24 13:28:32;;;;;;;14.63;2.78;;;7.80;99.90;;;;;;5071886;28;20468;-71
2023/02/24 13:31:11;;;;;;;23.63;2.85;;;8.00;99.90;;;;;;5084383;28;20025;-70
2023/02/24 13:33:39;;;;;;;12.00;1.90;;;8.30;99.90;;;;;;5067142;28;20120;-70
2023/02/24 13:36:20;;;;;;;15.85;2.70;;;8.50;99.90;;;;;;5065265;28;20082;-70
2023/02/24 13:39:18;;;;;;;21.35;3.00;;;8.70;99.90;;;;;;5086051;28;20090;-71
2023/02/24 13:41:44;;;;;;;17.05;2.25;;;8.80;99.90;;;;;;5067127;28;20087;-70
2023/02/24 13:44:46;;;;;;;12.43;2.08;;;8.90;99.90;;;;;;5068562;28;20072;-70
2023/02/24 13:47:31;;;;;;;13.23;1.95;;;8.60;99.90;;;;;;5056492;28;20041;-70
2023/02/24 13:50:15;;;;;;;10.32;1.63;;;8.40;99.90;;;;;;5042698;28;20108;-72
2023/02/24 13:53:12;;;;;;;8.45;1.27;;;8.10;99.90;;;;;;5062869;28;20075;-72
2023/02/24 13:55:45;;;;;;;9.18;0.93;;;8.00;99.90;;;;;;5067504;28;20041;-71